Time;durP1;ratioP1;P1;durP2;ratioP2;P2;SDS_P1;SDS_P2;PMS_P1;PMS_P2;Temp;Humidity;BMP_temperature;BMP_pressure;BME280_temperature;BME280_humidity;BME280_pressure;Samples;Min_cycle;Max_cycle;Signal;HPM_P1;HPM_P2
2022/12/25 00:01:31;;;;;;;16.48;7.15;;;9.20;80.00;;;;;;2374357;56;21538;-50
2022/12/25 00:03:58;;;;;;;21.50;8.43;;;9.20;80.20;;;;;;2374674;56;21549;-49
2022/12/25 00:06:25;;;;;;;23.33;9.30;;;9.20;79.90;;;;;;2374622;56;21102;-51
2022/12/25 00:08:52;;;;;;;19.73;8.10;;;9.20;79.70;;;;;;2374702;56;21027;-49
2022/12/25 00:11:20;;;;;;;19.25;7.87;;;9.20;79.70;;;;;;2374610;56;21137;-48
2022/12/25 00:13:48;;;;;;;17.75;6.72;;;9.30;79.80;;;;;;2374313;56;21063;-50
2022/12/25 00:16:17;;;;;;;16.95;7.55;;;9.30;79.80;;;;;;2374166;56;22184;-51
2022/12/25 00:18:45;;;;;;;19.40;6.05;;;9.30;79.80;;;;;;2374429;56;21242;-51
2022/12/25 00:21:13;;;;;;;11.38;6.28;;;9.20;79.60;;;;;;2374701;56;21533;-51
2022/12/25 00:23:42;;;;;;;12.48;6.90;;;9.20;79.40;;;;;;2374578;56;21530;-49
2022/12/25 00:26:12;;;;;;;10.52;6.10;;;9.20;79.10;;;;;;2374880;56;21515;-48
2022/12/25 00:28:39;;;;;;;14.73;6.97;;;9.20;78.70;;;;;;2375167;56;21047;-47
2022/12/25 00:31:08;;;;;;;14.02;6.70;;;9.20;78.30;;;;;;2375244;56;21106;-48
2022/12/25 00:33:36;;;;;;;12.40;6.85;;;9.10;77.90;;;;;;2374481;56;21138;-49
2022/12/25 00:36:06;;;;;;;14.38;6.82;;;9.10;77.40;;;;;;2374358;56;22126;-50
2022/12/25 00:38:34;;;;;;;14.85;7.22;;;9.10;77.10;;;;;;2374331;56;21050;-48
2022/12/25 00:41:05;;;;;;;15.25;8.18;;;9.10;76.70;;;;;;2374888;56;21070;-49
2022/12/25 00:43:33;;;;;;;14.18;6.82;;;9.00;76.30;;;;;;2372834;56;21043;-48
2022/12/25 00:46:01;;;;;;;17.95;6.97;;;9.00;76.30;;;;;;2374101;56;21059;-48
2022/12/25 00:48:29;;;;;;;16.12;6.97;;;9.00;76.30;;;;;;2374668;56;21186;-50
2022/12/25 00:50:58;;;;;;;12.30;6.62;;;9.00;76.20;;;;;;2375959;56;21562;-51
2022/12/25 00:53:27;;;;;;;13.05;7.15;;;8.90;76.10;;;;;;2375389;56;21090;-50
2022/12/25 00:55:55;;;;;;;13.93;6.62;;;8.80;76.10;;;;;;2374763;56;21026;-49
2022/12/25 00:58:23;;;;;;;18.05;8.38;;;8.80;76.30;;;;;;2374550;56;21103;-49
2022/12/25 01:00:51;;;;;;;18.70;7.95;;;8.80;76.30;;;;;;2374991;56;21090;-51
2022/12/25 01:03:18;;;;;;;13.25;7.25;;;8.70;76.20;;;;;;2374013;56;21038;-50
2022/12/25 01:05:55;;;;;;;16.05;7.28;;;8.70;76.30;;;;;;2374492;56;21126;-50
2022/12/25 01:08:22;;;;;;;14.63;6.70;;;8.70;76.60;;;;;;2373420;56;21106;-46
2022/12/25 01:10:55;;;;;;;16.65;7.40;;;8.70;76.80;;;;;;2373291;56;21043;-51
2022/12/25 01:13:22;;;;;;;17.60;7.45;;;8.60;76.80;;;;;;2372845;56;21130;-51
2022/12/25 01:15:51;;;;;;;16.12;7.00;;;8.50;76.70;;;;;;2373664;56;21534;-50
2022/12/25 01:18:18;;;;;;;14.63;7.15;;;8.50;76.70;;;;;;2372893;56;21122;-49
2022/12/25 01:20:46;;;;;;;15.20;7.22;;;8.40;77.00;;;;;;2373769;56;21050;-48
2022/12/25 01:23:13;;;;;;;18.55;6.95;;;8.40;77.00;;;;;;2374352;56;21550;-49
2022/12/25 01:25:41;;;;;;;19.40;7.45;;;8.40;76.90;;;;;;2374219;56;22109;-48
2022/12/25 01:28:08;;;;;;;14.65;7.12;;;8.30;76.80;;;;;;2373618;56;21035;-51
2022/12/25 01:30:35;;;;;;;20.67;8.40;;;8.30;76.90;;;;;;2373794;56;21111;-46
2022/12/25 01:33:02;;;;;;;16.87;6.97;;;8.30;77.00;;;;;;2373864;56;21035;-46
2022/12/25 01:35:30;;;;;;;19.08;8.00;;;8.30;77.30;;;;;;2372520;56;21090;-49
2022/12/25 01:37:57;;;;;;;20.20;9.27;;;8.30;77.50;;;;;;2373536;56;21546;-51
2022/12/25 01:40:24;;;;;;;27.08;9.30;;;8.20;77.50;;;;;;2372894;56;21051;-49
2022/12/25 01:42:51;;;;;;;19.58;8.70;;;8.20;77.30;;;;;;2373385;56;21117;-48
2022/12/25 01:45:39;;;;;;;16.87;8.05;;;8.20;77.40;;;;;;2373617;56;21038;-48
2022/12/25 01:48:12;;;;;;;22.65;9.10;;;8.10;77.50;;;;;;2373329;56;21515;-51
2022/12/25 01:50:42;;;;;;;18.33;7.95;;;8.20;77.60;;;;;;2374619;56;21169;-47
2022/12/25 01:53:09;;;;;;;17.87;8.38;;;8.20;77.70;;;;;;2374150;56;21626;-47
2022/12/25 01:58:14;;;;;;;22.80;8.40;;;8.10;77.60;;;;;;2355510;57;22537;-48
2022/12/25 02:00:42;;;;;;;20.77;8.18;;;8.10;77.60;;;;;;2373633;56;21591;-47
2022/12/25 02:03:09;;;;;;;24.25;9.25;;;8.10;77.60;;;;;;2374106;56;21631;-50
2022/12/25 02:05:37;;;;;;;15.68;7.93;;;8.10;77.60;;;;;;2373863;56;21031;-51
2022/12/25 02:08:10;;;;;;;19.35;9.02;;;8.10;77.60;;;;;;2374847;56;21538;-51
2022/12/25 02:10:38;;;;;;;28.92;9.80;;;8.00;77.70;;;;;;2375001;56;21543;-52
2022/12/25 02:13:06;;;;;;;31.17;11.15;;;8.00;77.90;;;;;;2374364;56;21114;-49
2022/12/25 02:15:42;;;;;;;25.67;9.27;;;8.00;78.20;;;;;;2375139;56;21601;-48
2022/12/25 02:18:14;;;;;;;24.45;9.90;;;8.00;78.60;;;;;;2374760;56;21050;-49
2022/12/25 02:21:07;;;;;;;31.60;9.32;;;8.00;79.00;;;;;;2374856;56;21760;-49
2022/12/25 02:24:15;;;;;;;15.93;8.47;;;8.00;79.20;;;;;;2375211;56;21549;-51
2022/12/25 02:27:02;;;;;;;21.75;8.93;;;8.10;79.50;;;;;;2374552;56;21531;-46
2022/12/25 02:29:36;;;;;;;21.48;9.18;;;8.00;79.70;;;;;;2374059;56;21641;-50
2022/12/25 02:32:12;;;;;;;25.08;9.75;;;8.00;80.00;;;;;;2373586;56;21094;-50
2022/12/25 02:34:46;;;;;;;34.78;10.88;;;8.10;80.50;;;;;;2373419;56;21669;-49
2022/12/25 02:37:18;;;;;;;24.83;9.95;;;8.10;80.80;;;;;;2375209;56;21065;-48
2022/12/25 02:39:58;;;;;;;25.88;9.95;;;8.10;80.90;;;;;;2375702;56;21031;-49
2022/12/25 03:07:37;;;;;;;31.35;12.65;;;8.30;81.70;;;;;;2346975;57;20990;-50
2022/12/25 03:13:03;;;;;;;33.35;12.25;;;8.30;81.60;;;;;;2347220;57;21053;-49
2022/12/25 03:18:23;;;;;;;32.60;11.48;;;8.40;81.60;;;;;;2594444;53;20985;-48
2022/12/25 03:32:16;;;;;;;24.92;10.25;;;8.40;81.10;;;;;;2593747;53;21034;-51
2022/12/25 04:36:42;;;;;;;14.50;8.52;;;8.30;80.40;;;;;;2345541;57;20997;-50
2022/12/25 04:39:10;;;;;;;14.60;8.30;;;8.30;80.40;;;;;;2346108;57;21533;-46
2022/12/25 04:41:37;;;;;;;19.50;8.82;;;8.30;80.50;;;;;;2346228;57;21057;-50
2022/12/25 04:44:04;;;;;;;20.42;8.32;;;8.30;81.10;;;;;;2593717;53;21033;-48
2022/12/25 04:46:31;;;;;;;19.83;8.98;;;8.30;80.20;;;;;;2345766;57;21612;-49
2022/12/25 04:48:59;;;;;;;19.62;8.88;;;8.30;80.20;;;;;;2345714;57;21101;-48
2022/12/25 04:51:26;;;;;;;16.83;8.98;;;8.30;80.00;;;;;;2345790;57;21081;-48
2022/12/25 04:53:53;;;;;;;32.33;9.93;;;8.30;79.90;;;;;;2345646;57;21030;-48
2022/12/25 04:56:21;;;;;;;23.85;11.45;;;8.30;79.70;;;;;;2346017;57;21297;-45
2022/12/25 04:58:49;;;;;;;20.45;10.02;;;8.30;79.60;;;;;;2345981;57;21553;-49
2022/12/25 05:01:16;;;;;;;24.15;11.15;;;8.30;79.80;;;;;;2345862;57;21105;-47
2022/12/25 05:03:43;;;;;;;21.15;11.40;;;8.30;79.90;;;;;;2345384;57;21604;-51
2022/12/25 05:06:10;;;;;;;20.40;10.88;;;8.30;80.00;;;;;;2345591;57;21033;-47
2022/12/25 05:08:38;;;;;;;29.40;12.13;;;8.20;80.10;;;;;;2345939;57;21548;-51
2022/12/25 05:11:07;;;;;;;22.80;10.02;;;8.20;80.30;;;;;;2345355;57;21129;-50
2022/12/25 05:13:34;;;;;;;21.40;10.20;;;8.30;80.50;;;;;;2347019;57;21061;-49
2022/12/25 05:16:04;;;;;;;19.98;10.57;;;8.20;80.50;;;;;;2347097;57;21034;-50
2022/12/25 05:18:32;;;;;;;17.50;10.15;;;8.20;80.50;;;;;;2347413;57;21168;-48
2022/12/25 05:20:59;;;;;;;23.15;10.13;;;8.20;80.50;;;;;;2346273;57;22090;-47
2022/12/25 05:23:26;;;;;;;19.17;10.27;;;8.20;80.60;;;;;;2345445;57;21034;-49
2022/12/25 05:25:53;;;;;;;20.92;10.63;;;8.20;80.60;;;;;;2345368;57;21519;-50
2022/12/25 05:28:20;;;;;;;25.33;10.57;;;8.30;80.90;;;;;;2345026;57;21045;-52
2022/12/25 05:30:47;;;;;;;30.88;12.05;;;8.20;80.70;;;;;;2345998;57;21192;-50
2022/12/25 05:33:14;;;;;;;26.05;10.80;;;8.20;81.00;;;;;;2346114;57;21574;-46
2022/12/25 05:35:42;;;;;;;20.92;11.35;;;8.20;81.00;;;;;;2346566;57;21061;-49
2022/12/25 05:38:09;;;;;;;18.80;9.93;;;8.20;80.80;;;;;;2346895;57;21676;-51
2022/12/25 05:40:39;;;;;;;21.60;11.07;;;8.20;80.70;;;;;;2344781;57;21553;-47
2022/12/25 05:43:06;;;;;;;20.75;10.60;;;8.20;80.50;;;;;;2345978;57;21529;-47
2022/12/25 05:45:33;;;;;;;20.02;10.30;;;8.20;80.30;;;;;;2345637;57;21042;-48
2022/12/25 05:48:00;;;;;;;18.55;9.65;;;8.20;80.10;;;;;;2345822;57;21033;-47
2022/12/25 05:50:28;;;;;;;17.12;9.90;;;8.20;80.00;;;;;;2346058;57;21061;-51
2022/12/25 05:52:55;;;;;;;18.10;9.38;;;8.20;79.80;;;;;;2345579;57;21109;-50
2022/12/25 05:55:22;;;;;;;16.65;8.93;;;8.20;79.70;;;;;;2345934;57;22225;-50
2022/12/25 05:57:49;;;;;;;19.52;9.57;;;8.20;79.70;;;;;;2345175;57;21055;-48
2022/12/25 06:00:18;;;;;;;24.27;10.05;;;8.20;79.80;;;;;;2345909;57;21050;-48
2022/12/25 06:02:45;;;;;;;21.77;10.65;;;8.20;80.00;;;;;;2347179;57;21049;-47
2022/12/25 06:05:13;;;;;;;18.20;10.63;;;8.20;80.20;;;;;;2347010;57;21061;-48
2022/12/25 06:07:40;;;;;;;22.55;9.25;;;8.20;80.30;;;;;;2346796;57;21518;-46
2022/12/25 06:10:09;;;;;;;27.52;11.57;;;8.20;80.40;;;;;;2347383;57;21037;-48
2022/12/25 06:12:36;;;;;;;31.75;11.38;;;8.20;80.60;;;;;;2346244;57;21057;-46
2022/12/25 06:17:40;;;;;;;21.37;9.35;;;8.20;81.00;;;;;;2355222;57;22066;-47
2022/12/25 06:20:09;;;;;;;24.90;10.52;;;8.20;81.20;;;;;;2366908;56;21059;-49
2022/12/25 06:22:36;;;;;;;32.40;13.30;;;8.30;81.50;;;;;;2373979;56;21138;-48
2022/12/25 06:25:04;;;;;;;24.95;11.57;;;8.30;81.60;;;;;;2374691;56;21030;-46
2022/12/25 06:27:32;;;;;;;21.05;10.07;;;8.30;81.70;;;;;;2375280;56;21519;-48
2022/12/25 06:29:59;;;;;;;32.78;11.88;;;8.30;81.80;;;;;;2374645;56;21038;-49
2022/12/25 06:32:26;;;;;;;29.08;10.82;;;8.40;81.80;;;;;;2374907;56;21075;-49
2022/12/25 06:34:53;;;;;;;23.73;10.85;;;8.40;81.80;;;;;;2374383;56;21038;-48
2022/12/25 06:37:20;;;;;;;27.98;11.70;;;8.40;81.70;;;;;;2373819;56;21114;-49
2022/12/25 06:39:48;;;;;;;21.17;10.95;;;8.40;81.60;;;;;;2374786;56;21047;-49
2022/12/25 06:42:15;;;;;;;27.67;11.60;;;8.40;81.60;;;;;;2374529;56;21566;-49
2022/12/25 06:44:43;;;;;;;30.05;11.48;;;8.50;81.70;;;;;;2374721;56;21082;-49
2022/12/25 06:47:10;;;;;;;25.95;11.38;;;8.50;81.70;;;;;;2374086;56;21039;-51
2022/12/25 06:49:38;;;;;;;28.00;11.38;;;8.50;81.70;;;;;;2374775;56;21614;-47
2022/12/25 06:52:05;;;;;;;26.42;10.63;;;8.60;81.80;;;;;;2373469;56;21558;-48
2022/12/25 06:54:32;;;;;;;24.52;10.18;;;8.60;81.70;;;;;;2375450;56;21042;-47
2022/12/25 06:56:59;;;;;;;35.30;10.85;;;8.60;81.60;;;;;;2375992;56;21030;-46
2022/12/25 06:59:27;;;;;;;26.73;11.25;;;8.60;81.70;;;;;;2375998;56;21539;-47
2022/12/25 07:01:56;;;;;;;31.92;11.57;;;8.60;81.70;;;;;;2375682;56;21083;-47
2022/12/25 07:04:30;;;;;;;30.35;11.27;;;8.70;81.70;;;;;;2374146;56;21590;-48
2022/12/25 07:06:58;;;;;;;25.65;10.73;;;8.60;81.60;;;;;;2374267;56;21090;-48
2022/12/25 07:09:25;;;;;;;21.83;10.20;;;8.70;81.70;;;;;;2373256;56;21630;-48
2022/12/25 07:11:53;;;;;;;25.65;10.38;;;8.60;81.60;;;;;;2374399;56;21530;-51
2022/12/25 07:14:22;;;;;;;24.42;10.25;;;8.70;81.70;;;;;;2374862;56;21518;-47
2022/12/25 07:16:49;;;;;;;26.35;11.05;;;8.70;81.80;;;;;;2375124;56;21617;-50
2022/12/25 07:19:18;;;;;;;27.73;11.05;;;8.70;81.70;;;;;;2375069;56;21035;-48
2022/12/25 07:21:46;;;;;;;26.70;10.43;;;8.70;81.70;;;;;;2374875;56;21050;-49
2022/12/25 07:24:18;;;;;;;29.52;10.70;;;8.80;81.80;;;;;;2374263;56;21103;-47
2022/12/25 07:26:45;;;;;;;29.95;11.82;;;8.80;81.70;;;;;;2374131;56;22127;-48
2022/12/25 07:29:13;;;;;;;24.15;10.85;;;8.80;81.70;;;;;;2373695;56;21527;-47
2022/12/25 07:31:40;;;;;;;23.02;10.38;;;8.80;81.70;;;;;;2373269;56;21117;-51
2022/12/25 07:34:07;;;;;;;19.52;9.13;;;8.80;81.70;;;;;;2373561;56;21032;-49
2022/12/25 07:36:34;;;;;;;24.30;9.65;;;8.80;82.10;;;;;;2373041;56;21701;-49
2022/12/25 07:39:01;;;;;;;21.90;9.57;;;8.80;81.70;;;;;;2373988;56;21034;-48
2022/12/25 07:41:28;;;;;;;25.83;10.20;;;8.90;81.70;;;;;;2373487;56;21055;-51
2022/12/25 07:43:56;;;;;;;24.85;8.77;;;8.90;81.80;;;;;;2443573;53;21117;-50
2022/12/25 07:46:23;;;;;;;25.40;9.23;;;8.90;81.80;;;;;;2330145;57;21544;-47
2022/12/25 07:48:50;;;;;;;22.60;8.63;;;8.90;81.80;;;;;;2329623;57;21121;-52
2022/12/25 07:51:17;;;;;;;18.35;8.60;;;8.90;81.90;;;;;;2329806;57;21580;-49
2022/12/25 07:53:45;;;;;;;23.60;9.05;;;8.90;81.90;;;;;;2329825;57;21597;-52
2022/12/25 07:56:15;;;;;;;28.95;9.20;;;8.90;81.80;;;;;;2328603;57;21641;-48
2022/12/25 07:58:43;;;;;;;24.33;9.32;;;8.90;81.80;;;;;;2328257;57;21680;-50
2022/12/25 08:01:13;;;;;;;25.95;9.15;;;9.00;81.30;;;;;;2328657;57;21145;-49
2022/12/25 08:03:40;;;;;;;23.35;8.63;;;9.00;81.40;;;;;;2328867;57;21185;-48
2022/12/25 08:06:10;;;;;;;26.30;9.23;;;9.00;81.50;;;;;;2329488;57;21090;-49
2022/12/25 08:08:38;;;;;;;25.08;10.57;;;9.00;81.50;;;;;;2329499;57;21057;-50
2022/12/25 08:11:08;;;;;;;30.45;10.82;;;9.00;81.60;;;;;;2328686;57;21030;-48
2022/12/25 08:13:36;;;;;;;25.37;9.35;;;9.00;81.70;;;;;;2571943;53;21054;-53
2022/12/25 08:16:06;;;;;;;24.15;9.48;;;9.00;81.70;;;;;;2328249;57;21633;-49
2022/12/25 08:18:35;;;;;;;26.30;8.60;;;9.00;81.80;;;;;;2324532;57;21098;-51
2022/12/25 08:21:04;;;;;;;26.23;9.48;;;9.00;81.80;;;;;;2328055;57;21027;-50
2022/12/25 08:23:34;;;;;;;19.55;8.15;;;9.00;81.90;;;;;;2328175;57;21590;-47
2022/12/25 08:26:02;;;;;;;32.20;9.75;;;9.10;82.10;;;;;;2327008;57;21545;-49
2022/12/25 08:28:29;;;;;;;23.73;8.45;;;9.10;82.20;;;;;;2327346;57;21550;-50
2022/12/25 08:30:57;;;;;;;26.12;8.82;;;9.10;82.10;;;;;;2327571;57;21066;-51
2022/12/25 08:33:24;;;;;;;29.58;9.43;;;9.10;82.10;;;;;;2326991;57;21110;-50
2022/12/25 08:35:51;;;;;;;22.70;8.57;;;9.10;82.10;;;;;;2327439;57;21125;-48
2022/12/25 08:38:18;;;;;;;26.55;9.45;;;9.10;82.00;;;;;;2327008;57;21137;-48
2022/12/25 08:40:45;;;;;;;20.75;8.10;;;9.10;82.10;;;;;;2328014;57;21625;-47
2022/12/25 08:43:12;;;;;;;22.62;8.63;;;9.10;82.20;;;;;;2327844;57;21454;-49
2022/12/25 08:45:40;;;;;;;16.50;7.50;;;9.10;82.30;;;;;;2328301;57;21121;-49
2022/12/25 08:48:07;;;;;;;22.85;8.30;;;9.10;82.40;;;;;;2327887;57;21553;-51
2022/12/25 08:50:34;;;;;;;24.98;8.68;;;9.10;82.50;;;;;;2328063;57;21597;-49
2022/12/25 08:53:01;;;;;;;20.33;7.70;;;9.20;82.60;;;;;;2326795;57;21054;-50
2022/12/25 08:55:28;;;;;;;18.45;8.15;;;9.20;82.50;;;;;;2327225;57;21146;-48
2022/12/25 08:57:56;;;;;;;22.30;8.52;;;9.20;82.50;;;;;;2327835;57;21145;-51
2022/12/25 09:00:23;;;;;;;20.65;8.43;;;9.30;82.60;;;;;;2326755;57;21054;-49
2022/12/25 09:02:50;;;;;;;23.17;8.18;;;9.30;82.50;;;;;;2328769;57;21054;-47
2022/12/25 09:05:17;;;;;;;21.08;8.70;;;9.30;82.40;;;;;;2327555;57;21062;-49
2022/12/25 09:07:44;;;;;;;25.05;8.48;;;9.30;82.50;;;;;;2571771;53;21038;-48
2022/12/25 09:10:12;;;;;;;20.33;8.80;;;9.30;82.40;;;;;;2328459;57;21201;-51
2022/12/25 09:12:39;;;;;;;19.58;7.90;;;9.30;82.40;;;;;;2326803;57;21086;-47
2022/12/25 09:15:08;;;;;;;22.95;8.15;;;9.40;82.50;;;;;;2328522;57;21161;-47
2022/12/25 09:17:35;;;;;;;20.88;7.68;;;9.40;82.50;;;;;;2328546;57;21046;-48
2022/12/25 09:20:02;;;;;;;22.27;8.98;;;9.40;82.40;;;;;;2328329;57;21325;-51
2022/12/25 09:22:29;;;;;;;20.65;8.27;;;9.40;82.40;;;;;;2328149;57;21042;-49
2022/12/25 09:24:56;;;;;;;25.73;8.38;;;9.40;82.50;;;;;;2327614;57;21066;-47
2022/12/25 09:27:24;;;;;;;22.35;8.98;;;9.40;82.40;;;;;;2327130;57;21141;-50
2022/12/25 09:29:51;;;;;;;16.17;8.05;;;9.50;82.40;;;;;;2569943;54;21549;-51
2022/12/25 09:32:18;;;;;;;16.70;8.80;;;9.50;82.50;;;;;;2326831;57;22172;-49
2022/12/25 09:34:45;;;;;;;23.27;8.40;;;9.60;82.50;;;;;;2327940;57;21137;-47
2022/12/25 09:37:12;;;;;;;19.58;7.93;;;9.50;82.40;;;;;;2327455;57;21066;-47
2022/12/25 09:39:39;;;;;;;15.07;7.72;;;9.60;82.40;;;;;;2327325;57;21058;-49
2022/12/25 09:42:14;;;;;;;23.15;7.75;;;9.60;82.30;;;;;;2326162;57;21349;-53
2022/12/25 09:44:45;;;;;;;18.15;8.32;;;9.70;82.20;;;;;;2328612;57;21098;-49
2022/12/25 09:47:15;;;;;;;21.00;7.30;;;9.60;82.80;;;;;;2329122;57;21090;-50
2022/12/25 09:49:49;;;;;;;21.35;8.20;;;9.60;82.10;;;;;;2328767;57;21533;-50
2022/12/25 09:52:19;;;;;;;14.32;7.00;;;9.70;82.20;;;;;;2327466;57;21565;-51
2022/12/25 09:54:53;;;;;;;22.65;7.72;;;9.60;82.10;;;;;;2327517;57;21668;-50
2022/12/25 09:57:21;;;;;;;22.35;6.50;;;9.60;82.10;;;;;;2327539;57;21058;-47
2022/12/25 09:59:48;;;;;;;25.48;7.65;;;9.70;82.20;;;;;;2327052;57;21111;-49
2022/12/25 10:02:57;;;;;;;19.00;7.35;;;9.70;82.20;;;;;;2327371;57;21066;-47
2022/12/25 10:06:00;;;;;;;16.08;7.53;;;9.70;82.20;;;;;;2328378;57;21059;-48
2022/12/25 10:08:54;;;;;;;16.62;6.35;;;9.80;82.10;;;;;;2328278;57;21453;-49
2022/12/25 10:11:35;;;;;;;19.27;6.97;;;9.80;82.10;;;;;;2327959;57;21062;-51
2022/12/25 10:14:13;;;;;;;23.73;8.65;;;9.80;82.20;;;;;;2327068;57;22180;-49
2022/12/25 10:16:50;;;;;;;20.08;6.90;;;9.80;82.40;;;;;;2328450;57;21093;-50
2022/12/25 10:19:34;;;;;;;16.90;6.82;;;9.80;82.40;;;;;;2327820;57;21062;-53
2022/12/25 10:22:08;;;;;;;17.77;7.32;;;9.80;82.40;;;;;;2327562;57;21518;-51
2022/12/25 10:24:39;;;;;;;18.08;7.97;;;9.90;82.30;;;;;;2327914;57;21545;-52
2022/12/25 10:27:15;;;;;;;16.70;6.20;;;9.90;82.50;;;;;;2325797;57;21868;-50
2022/12/25 10:29:42;;;;;;;18.27;7.30;;;9.90;82.40;;;;;;2329388;57;21575;-49
2022/12/25 10:32:10;;;;;;;14.90;6.47;;;9.90;82.30;;;;;;2329441;57;21158;-49
2022/12/25 10:34:40;;;;;;;20.40;8.38;;;9.90;82.40;;;;;;2329076;57;21026;-52
2022/12/25 10:37:09;;;;;;;16.67;6.82;;;9.90;82.50;;;;;;2572462;54;21094;-50
2022/12/25 10:39:36;;;;;;;15.63;6.97;;;10.00;82.60;;;;;;2328456;57;21086;-51
2022/12/25 10:42:29;;;;;;;16.62;6.40;;;10.00;82.50;;;;;;2326778;57;21050;-50
2022/12/25 10:44:58;;;;;;;15.65;6.95;;;10.00;82.50;;;;;;2326673;57;21062;-54
2022/12/25 10:47:28;;;;;;;18.05;6.87;;;10.00;82.30;;;;;;2327995;57;21054;-48
2022/12/25 10:49:57;;;;;;;18.90;7.10;;;10.10;82.40;;;;;;2327996;57;21057;-49
2022/12/25 10:52:26;;;;;;;18.30;7.28;;;10.10;82.40;;;;;;2328885;57;21554;-49
2022/12/25 10:54:54;;;;;;;21.67;6.80;;;10.10;82.30;;;;;;2327642;57;22102;-49
2022/12/25 10:57:23;;;;;;;17.80;7.35;;;10.10;82.30;;;;;;2328551;57;21602;-49
2022/12/25 10:59:54;;;;;;;24.42;8.32;;;10.10;81.90;;;;;;2328595;57;21621;-51
2022/12/25 11:02:26;;;;;;;17.12;7.15;;;10.10;81.80;;;;;;2327743;57;21116;-50
2022/12/25 11:05:01;;;;;;;20.33;6.97;;;10.10;81.90;;;;;;2327446;57;21506;-47
2022/12/25 11:07:29;;;;;;;14.40;6.68;;;10.10;82.10;;;;;;2328398;57;21069;-48
2022/12/25 11:09:59;;;;;;;18.00;5.90;;;10.20;82.10;;;;;;2328326;57;21695;-56
2022/12/25 11:12:30;;;;;;;16.05;6.15;;;10.20;82.20;;;;;;2327977;57;21699;-51
2022/12/25 11:15:02;;;;;;;11.00;5.45;;;10.20;82.30;;;;;;2328201;57;21129;-50
2022/12/25 11:17:29;;;;;;;20.17;7.87;;;10.20;82.40;;;;;;2328306;57;21090;-51
2022/12/25 11:19:58;;;;;;;16.90;5.93;;;10.30;82.50;;;;;;2328068;57;21153;-49
2022/12/25 11:22:27;;;;;;;13.82;6.57;;;10.30;82.40;;;;;;2327853;57;21710;-50
2022/12/25 11:24:55;;;;;;;13.18;6.20;;;10.30;82.40;;;;;;2329220;57;21094;-48
2022/12/25 11:27:26;;;;;;;13.45;6.20;;;10.30;82.50;;;;;;2328021;57;21536;-50
2022/12/25 11:29:57;;;;;;;13.35;6.85;;;10.30;82.50;;;;;;2329509;57;21106;-48
2022/12/25 11:32:28;;;;;;;14.73;6.40;;;10.30;82.40;;;;;;2329295;57;21145;-53
2022/12/25 11:34:57;;;;;;;10.50;5.85;;;10.40;82.30;;;;;;2328711;57;21026;-49
2022/12/25 11:37:30;;;;;;;10.85;5.45;;;10.40;82.30;;;;;;2328183;57;21050;-52
2022/12/25 11:39:57;;;;;;;14.32;6.62;;;10.40;82.40;;;;;;2328076;57;21038;-50
2022/12/25 11:42:29;;;;;;;16.05;6.87;;;10.40;82.30;;;;;;2324653;57;21042;-53
2022/12/25 11:45:01;;;;;;;22.92;7.18;;;10.40;82.10;;;;;;2326799;57;21316;-51
2022/12/25 11:47:36;;;;;;;21.62;6.55;;;10.40;81.90;;;;;;2328156;57;21534;-48
2022/12/25 11:50:12;;;;;;;15.35;6.55;;;10.50;81.90;;;;;;2327457;57;21333;-49
2022/12/25 11:52:44;;;;;;;15.02;7.15;;;10.50;81.80;;;;;;2328550;57;21545;-51
2022/12/25 11:55:18;;;;;;;17.10;7.25;;;10.40;81.60;;;;;;2327939;57;21616;-47
2022/12/25 11:57:52;;;;;;;20.95;7.28;;;10.50;81.50;;;;;;2328152;57;21117;-48
2022/12/25 12:00:20;;;;;;;13.18;6.50;;;10.50;81.30;;;;;;2326396;57;21526;-50
2022/12/25 12:02:56;;;;;;;18.25;7.47;;;10.40;81.30;;;;;;2326010;57;21577;-53
2022/12/25 12:05:28;;;;;;;17.92;7.15;;;10.40;81.40;;;;;;2328007;57;21058;-50
2022/12/25 12:07:59;;;;;;;16.98;7.45;;;10.40;81.30;;;;;;2328199;57;21057;-50
2022/12/25 12:10:35;;;;;;;13.98;6.65;;;10.40;81.30;;;;;;2326401;57;22085;-51
2022/12/25 12:13:22;;;;;;;17.52;7.32;;;10.40;81.30;;;;;;2326372;57;21050;-48
2022/12/25 12:15:50;;;;;;;16.05;6.75;;;10.40;81.30;;;;;;2327866;57;21030;-48
2022/12/25 12:18:27;;;;;;;14.15;6.45;;;10.40;81.30;;;;;;2327647;57;21038;-49
2022/12/25 12:20:59;;;;;;;15.98;7.10;;;10.40;81.30;;;;;;2326982;57;21158;-51
2022/12/25 12:23:28;;;;;;;13.07;6.87;;;10.40;81.30;;;;;;2326990;57;21034;-50
2022/12/25 12:25:56;;;;;;;22.62;8.02;;;10.40;81.20;;;;;;2326366;57;21141;-48
2022/12/25 12:28:26;;;;;;;21.12;8.23;;;10.40;81.20;;;;;;2326889;57;21526;-50
2022/12/25 12:30:59;;;;;;;15.70;7.75;;;10.40;81.10;;;;;;2326065;57;21542;-49
2022/12/25 12:33:32;;;;;;;23.08;7.72;;;10.30;81.10;;;;;;2326910;57;21134;-51
2022/12/25 12:36:01;;;;;;;17.75;8.57;;;10.40;81.00;;;;;;2327639;57;21051;-51
2022/12/25 12:38:29;;;;;;;19.65;7.68;;;10.40;81.00;;;;;;2326790;57;21058;-49
2022/12/25 12:41:00;;;;;;;20.12;7.20;;;10.40;81.00;;;;;;2325668;57;21574;-48
2022/12/25 12:43:35;;;;;;;19.55;7.40;;;10.30;81.00;;;;;;2326266;57;21066;-51
2022/12/25 12:46:07;;;;;;;21.60;8.90;;;10.30;81.00;;;;;;2572756;54;21054;-52
2022/12/25 12:48:40;;;;;;;19.30;8.32;;;10.30;80.90;;;;;;2329592;57;21121;-48
2022/12/25 12:51:09;;;;;;;19.42;8.18;;;10.30;81.00;;;;;;2329319;57;21290;-50
2022/12/25 12:53:38;;;;;;;22.00;9.20;;;10.30;81.10;;;;;;2328766;57;21169;-50
2022/12/25 12:56:17;;;;;;;17.83;7.37;;;10.30;81.10;;;;;;2329086;57;21514;-51
2022/12/25 12:58:49;;;;;;;19.70;8.23;;;10.30;81.10;;;;;;2328287;57;21062;-50
2022/12/25 13:01:30;;;;;;;15.63;7.43;;;10.30;81.10;;;;;;2329260;57;21197;-50
2022/12/25 13:04:12;;;;;;;21.80;7.20;;;10.40;81.20;;;;;;2328920;57;21050;-49
2022/12/25 13:06:44;;;;;;;15.45;8.07;;;10.40;81.20;;;;;;2330404;57;21082;-51
2022/12/25 13:09:27;;;;;;;20.10;8.63;;;10.40;81.10;;;;;;2330336;57;21523;-49
2022/12/25 13:11:54;;;;;;;20.12;8.48;;;10.40;81.20;;;;;;2328669;57;21082;-49
2022/12/25 13:14:23;;;;;;;20.33;8.38;;;10.40;81.10;;;;;;2330009;57;21030;-51
2022/12/25 13:16:53;;;;;;;22.10;8.95;;;10.30;81.10;;;;;;2330105;57;21030;-51
2022/12/25 13:19:22;;;;;;;20.02;8.27;;;10.30;81.10;;;;;;2330239;57;21058;-49
2022/12/25 13:21:54;;;;;;;15.75;7.25;;;10.30;81.20;;;;;;2327928;57;21043;-53
2022/12/25 13:24:23;;;;;;;18.73;8.45;;;10.30;81.30;;;;;;2329242;57;21609;-49
2022/12/25 13:26:50;;;;;;;21.02;8.20;;;10.30;81.30;;;;;;2328620;57;21533;-49
2022/12/25 13:29:29;;;;;;;16.48;7.82;;;10.30;81.40;;;;;;2572178;54;21510;-52
2022/12/25 13:31:56;;;;;;;24.30;8.27;;;10.30;81.50;;;;;;2329101;57;22191;-50
2022/12/25 13:34:29;;;;;;;14.40;7.10;;;10.30;81.50;;;;;;2329743;57;21185;-48
2022/12/25 13:36:58;;;;;;;16.80;8.07;;;10.30;81.70;;;;;;2330010;57;21061;-53
2022/12/25 13:39:26;;;;;;;19.62;8.05;;;10.30;81.40;;;;;;2570080;54;21542;-50
2022/12/25 13:42:08;;;;;;;19.48;7.05;;;10.40;81.40;;;;;;2328990;57;21116;-52
2022/12/25 13:44:42;;;;;;;22.53;8.90;;;10.30;81.50;;;;;;2328945;57;21113;-49
2022/12/25 13:47:18;;;;;;;14.70;7.47;;;10.40;81.30;;;;;;2329040;57;22276;-50
2022/12/25 13:49:46;;;;;;;19.73;7.43;;;10.30;81.30;;;;;;2329085;57;21061;-47
2022/12/25 13:52:15;;;;;;;17.33;8.57;;;10.40;81.30;;;;;;2329418;57;21062;-50
2022/12/25 13:54:53;;;;;;;16.65;7.35;;;10.30;81.30;;;;;;2328766;57;22298;-48
2022/12/25 13:57:24;;;;;;;15.18;7.20;;;10.30;81.30;;;;;;2327777;57;22337;-48
2022/12/25 13:59:51;;;;;;;17.35;7.50;;;10.40;81.20;;;;;;2330296;57;21502;-50
2022/12/25 14:02:22;;;;;;;20.08;8.52;;;10.40;81.20;;;;;;2329884;57;21030;-48
2022/12/25 14:04:50;;;;;;;14.90;7.60;;;10.40;81.20;;;;;;2330224;57;21137;-48
2022/12/25 14:07:22;;;;;;;15.20;8.35;;;10.30;81.10;;;;;;2330072;57;21589;-48
2022/12/25 14:09:53;;;;;;;21.98;10.13;;;10.30;81.10;;;;;;2329849;57;21911;-50
2022/12/25 14:12:21;;;;;;;17.33;7.68;;;10.30;81.10;;;;;;2329149;57;21054;-51
2022/12/25 14:14:51;;;;;;;19.90;7.37;;;10.40;81.10;;;;;;2328287;57;21637;-50
2022/12/25 14:17:18;;;;;;;15.10;7.15;;;10.40;81.10;;;;;;2328707;57;21050;-49
2022/12/25 14:19:54;;;;;;;18.08;7.43;;;10.40;81.20;;;;;;2572423;53;21725;-51
2022/12/25 14:22:23;;;;;;;15.23;6.85;;;10.40;81.20;;;;;;2329187;57;21553;-50
2022/12/25 14:24:50;;;;;;;17.35;7.03;;;10.40;81.00;;;;;;2329033;57;21646;-49
2022/12/25 14:27:20;;;;;;;17.02;6.78;;;10.40;80.90;;;;;;2329799;57;21618;-51
2022/12/25 14:29:50;;;;;;;16.30;6.82;;;10.40;80.90;;;;;;2328260;57;21129;-48
2022/12/25 14:32:19;;;;;;;14.35;7.05;;;10.40;81.10;;;;;;2328304;57;21602;-47
2022/12/25 14:34:50;;;;;;;13.62;7.57;;;10.40;80.80;;;;;;2329164;57;21525;-51
2022/12/25 14:37:20;;;;;;;14.15;6.80;;;10.40;80.70;;;;;;2329215;57;21184;-48
2022/12/25 14:39:56;;;;;;;17.08;7.85;;;10.40;80.90;;;;;;2326079;57;21989;-50
2022/12/25 14:42:26;;;;;;;17.25;7.47;;;10.40;80.70;;;;;;2329091;57;21418;-48
2022/12/25 14:45:01;;;;;;;17.52;7.28;;;10.30;80.60;;;;;;2329323;57;21050;-48